Página principal
METAR-TAF:

METAR-TAF

Aeroportos :

Qurghonteppa, Tadjiquistão

latitude: 37-51-44N, longitude: 068-51-46E, altura: 449 m

Observação actual do tempo

O boletim foi feito há 20 minutos, às 17:00 UTC
Vento 4 kt de nor-nordeste, variando entre norte e nordeste
Temperatura 35°C
Humidade 32%
Pressão 995 hPa
Visibilidade 10 km ou mais
Poucas nuvensa uma altura de 20000 ft

METAR: UTDT 231700Z 02002MPS 350V050 9999 FEW200 32/13 Q0995 35////// RMK QFE708/0944

Hora: 22:20 (17:20 UTC)

Previsão

O boletim foi feito há 2 horas e 20 minutos, às 15:00 UTC
Previsão válida de 23 às 16 UTC a 24 às 01 UTC
Vento 4 kt com direcção variável
Visibilidade: 6000 m
Poucas nuvensa uma altura de 6600 ft
Nuvens dispersasa uma altura de 12000 ft

TAF: UTDT 231500Z 2316/2401 VRB02MPS 6000 FEW066 SCT120

Observações e previsões do tempo de mais de 4000 aeroportos (mensagens METAR e TAF).

As estações disponíveis são os pontos amarelos e vermelhos sobre o mapa.

Mova o rato sobre o mapa para ver o nome da estação.

Depois clique no ponto para visualizar as observações e previsões meteorológicas.

Para alterar o mapa : clique nos botões verdes com uma cruz preta para aumentar o zoom; no botão verde com uma pitada de zoom; ou nas setas verdes para mapas adjacentes.


METAR-TAF: